createdAt,value
2023-08-12T09:04:57.876Z,26.40
2023-08-12T09:09:56.777Z,26.50
2023-08-12T09:14:54.559Z,26.60
2023-08-12T09:19:53.200Z,26.70
2023-08-12T09:22:21.674Z,26.70
2023-08-12T09:24:52.846Z,26.70
2023-08-12T09:27:21.330Z,26.80
2023-08-12T09:29:49.502Z,26.90
2023-08-12T09:32:22.409Z,27.00
2023-08-12T09:34:53.384Z,27.20
2023-08-12T09:37:23.394Z,27.20
2023-08-12T09:39:53.293Z,27.70
2023-08-12T09:42:21.617Z,27.80
2023-08-12T09:44:49.916Z,28.00
2023-08-12T09:47:18.214Z,28.00
2023-08-12T09:49:46.403Z,28.50
2023-08-12T09:52:16.143Z,28.40
2023-08-12T09:54:44.899Z,28.70
2023-08-12T09:57:15.934Z,28.60
2023-08-12T09:59:45.461Z,28.40
2023-08-12T10:02:19.633Z,28.70
2023-08-12T10:04:49.909Z,28.50
2023-08-12T10:07:20.390Z,28.80
2023-08-12T10:09:48.990Z,28.80
2023-08-12T10:12:19.673Z,28.80
2023-08-12T10:14:49.442Z,28.60
2023-08-12T10:17:21.470Z,28.90
2023-08-12T10:19:59.081Z,29.00
2023-08-12T10:22:29.247Z,29.20
2023-08-12T10:24:58.186Z,29.30
2023-08-12T10:27:27.377Z,29.40
2023-08-12T10:29:58.530Z,29.40
2023-08-12T10:32:26.853Z,29.00
2023-08-12T10:34:58.357Z,29.40
2023-08-12T10:37:29.404Z,29.40
2023-08-12T10:39:57.892Z,29.20
2023-08-12T10:42:43.378Z,29.30
2023-08-12T10:45:12.962Z,29.40
2023-08-12T10:47:43.008Z,29.30
2023-08-12T10:50:20.379Z,29.40
2023-08-12T10:52:52.849Z,29.40
2023-08-12T10:55:23.209Z,29.60
2023-08-12T10:57:54.348Z,29.70
2023-08-12T11:00:26.669Z,29.90
2023-08-12T11:02:55.997Z,29.80
2023-08-12T11:05:24.826Z,29.70
2023-08-12T11:08:02.426Z,29.70
2023-08-12T11:10:34.717Z,29.90
2023-08-12T11:13:04.331Z,29.90
2023-08-12T11:15:34.847Z,29.70
2023-08-12T11:18:05.913Z,29.90
2023-08-12T11:20:35.294Z,29.80
2023-08-12T11:25:36.506Z,29.90
2023-08-12T11:28:06.953Z,30.20
2023-08-12T11:30:35.527Z,30.20
2023-08-12T11:33:04.993Z,30.00
2023-08-12T11:35:33.262Z,29.90
2023-08-12T11:38:01.763Z,29.90
2023-08-12T11:40:31.371Z,29.70
2023-08-12T11:42:59.622Z,29.80
2023-08-12T11:45:29.624Z,29.90
2023-08-12T11:47:57.920Z,29.80
2023-08-12T11:50:28.506Z,29.90
2023-08-12T11:52:58.526Z,30.40
2023-08-12T11:55:27.817Z,29.70
2023-08-12T11:57:57.522Z,30.30
2023-08-12T12:00:28.346Z,30.40
2023-08-12T12:02:58.058Z,30.30
2023-08-12T12:05:29.167Z,30.60
2023-08-12T12:07:57.679Z,30.40
2023-08-12T12:10:33.417Z,30.50
2023-08-12T12:13:06.096Z,30.30
2023-08-12T12:15:40.036Z,30.20
2023-08-12T12:18:12.247Z,30.20
2023-08-12T12:20:45.048Z,30.20
2023-08-12T12:23:13.474Z,30.10
2023-08-12T12:25:43.884Z,29.90
2023-08-12T12:28:15.548Z,29.40
2023-08-12T12:30:43.866Z,29.80
2023-08-12T12:33:12.084Z,28.90
2023-08-12T12:35:51.494Z,28.70
2023-08-12T12:38:24.009Z,28.60
2023-08-12T13:48:03.802Z,24.20
2023-08-12T13:50:53.718Z,25.20
2023-08-12T13:53:42.300Z,26.50
2023-08-12T13:56:32.461Z,27.60
2023-08-12T13:59:21.287Z,28.50
2023-08-12T14:02:09.797Z,28.30
2023-08-12T14:04:58.319Z,28.10
2023-08-12T14:07:48.216Z,27.90
2023-08-12T14:10:36.675Z,28.00
2023-08-12T14:13:25.201Z,28.10
2023-08-12T14:16:13.777Z,28.60
2023-08-12T16:57:49.818Z,22.90
2023-08-12T17:00:20.013Z,23.00
2023-08-12T17:22:41.233Z,24.00
2023-08-12T17:25:10.172Z,24.20
2023-08-12T17:27:38.448Z,24.30
2023-08-12T17:30:07.986Z,24.40
2023-08-12T17:32:36.460Z,24.40
2023-08-12T17:35:06.768Z,24.60
2023-08-12T17:37:39.500Z,24.70
2023-08-12T17:40:11.672Z,24.80
2023-08-12T17:42:40.065Z,24.90
2023-08-12T17:45:09.065Z,25.00
2023-08-12T17:47:37.303Z,24.80
2023-08-12T17:50:09.412Z,24.70
2023-08-12T17:52:37.659Z,24.70
2023-08-12T17:55:06.555Z,24.40
2023-08-12T17:57:34.782Z,24.60
2023-08-12T18:00:03.678Z,24.50
2023-08-12T18:02:32.080Z,24.50
2023-08-12T18:05:00.524Z,24.50
2023-08-12T18:07:30.182Z,24.50
2023-08-12T18:09:58.503Z,24.50
2023-08-12T18:12:26.833Z,24.40
2023-08-12T18:14:55.052Z,24.50
2023-08-12T18:17:25.203Z,24.40
2023-08-12T18:19:53.618Z,24.30
2023-08-12T18:22:22.301Z,24.20
2023-08-12T18:24:51.945Z,24.30
2023-08-12T18:27:20.188Z,24.10
2023-08-12T18:29:48.517Z,24.00
2023-08-12T18:32:16.814Z,23.90
2023-08-12T18:34:45.169Z,24.00
2023-08-12T18:37:14.259Z,23.90
2023-08-12T18:39:42.450Z,23.80
2023-08-12T18:42:12.518Z,23.60
2023-08-12T18:44:41.007Z,23.70
2023-08-12T18:47:09.176Z,23.60
2023-08-12T18:49:37.430Z,23.50
2023-08-12T18:52:06.171Z,23.40
2023-08-12T18:54:34.391Z,23.20
2023-08-12T18:57:03.012Z,23.20
2023-08-12T18:59:32.647Z,23.20
2023-08-12T19:02:01.121Z,23.20
2023-08-12T19:04:29.424Z,23.10
2023-08-12T19:06:57.624Z,23.00
2023-08-12T19:09:26.295Z,23.10
2023-08-12T19:11:54.654Z,23.00
2023-08-12T19:14:22.938Z,23.10
2023-08-12T19:16:52.786Z,23.10
2023-08-12T19:19:20.973Z,23.00
2023-08-12T19:21:49.805Z,22.90
2023-08-12T19:24:18.022Z,22.80
2023-08-12T19:26:46.516Z,23.00
2023-08-12T19:29:14.774Z,22.80
2023-08-12T19:31:43.134Z,22.70
2023-08-12T19:34:12.872Z,22.70
2023-08-12T19:36:41.098Z,22.70
2023-08-12T19:39:08.462Z,22.70
2023-08-12T19:41:37.000Z,22.50
2023-08-12T19:44:06.209Z,22.70
2023-08-12T19:46:34.629Z,22.70
2023-08-12T19:49:03.911Z,22.60
2023-08-12T19:51:33.514Z,22.60
2023-08-12T19:54:01.758Z,22.60
2023-08-12T19:56:30.059Z,22.50
2023-08-12T19:58:58.725Z,22.40
2023-08-12T20:01:27.056Z,22.30
2023-08-12T20:03:55.464Z,22.70
2023-08-12T20:06:23.701Z,22.40
2023-08-12T20:08:53.401Z,22.60
2023-08-12T20:13:50.174Z,22.70
2023-08-12T20:18:49.991Z,22.10
2023-08-12T20:21:18.182Z,22.70
2023-08-12T20:23:46.391Z,22.30
2023-08-12T20:26:16.014Z,22.20
2023-08-12T20:28:44.290Z,22.20
2023-08-12T20:33:41.150Z,22.00
2023-08-12T20:36:09.472Z,22.00
2023-08-12T20:38:37.824Z,21.80
2023-08-12T20:43:35.881Z,21.80
2023-08-12T20:46:06.278Z,21.90
2023-08-12T20:48:34.608Z,21.70
2023-08-12T20:51:03.211Z,21.80
2023-08-12T20:53:32.411Z,21.80
2023-08-12T20:58:30.983Z,21.80
2023-08-12T21:03:29.455Z,21.70
2023-08-12T21:05:57.974Z,21.80
2023-08-12T21:08:27.375Z,21.60
2023-08-12T21:30:48.585Z,22.00
2023-08-12T21:38:16.254Z,21.40
2023-08-12T21:40:44.546Z,21.40
2023-08-12T22:00:39.902Z,21.10
2023-08-12T22:28:05.228Z,20.80
2023-08-12T22:33:01.947Z,21.40
2023-08-12T22:40:27.334Z,20.80
2023-08-12T22:50:23.273Z,20.80
2023-08-12T22:55:20.157Z,20.80
2023-08-12T23:05:17.742Z,21.00
2023-08-12T23:07:46.031Z,20.60
2023-08-12T23:10:14.439Z,20.70
2023-08-12T23:15:11.711Z,20.50
2023-08-12T23:17:40.054Z,20.60
2023-08-12T23:22:39.437Z,20.90
2023-08-12T23:27:36.909Z,20.30
2023-08-12T23:35:02.676Z,20.40
2023-08-12T23:37:32.335Z,20.10
2023-08-12T23:40:00.741Z,20.20
2023-08-12T23:42:30.310Z,20.10
2023-08-12T23:44:58.517Z,20.10
2023-08-12T23:52:26.102Z,20.80
2023-08-12T23:54:55.698Z,20.00
2023-08-12T23:57:23.895Z,19.90
2023-08-12T23:59:52.169Z,20.00
